Terminal Aerodrome Forecast
Issued by NWS Detroit/Pontiac, MI

Home | Current Version | Previous Version | Text Only | Print | Product List | Glossary On
Versions: 1 2 3 4 5 6 7 8 9 10 11 12 13 14 15 16 17
000
FTUS43 KDTX 272029 AAA
TAFFNT
TAF AMD
KFNT 272029Z 2720/2818 20006KT P6SM SCT040 BKN150
     FM280100 17004KT P6SM SCT060 BKN120
     FM281400 20008KT P6SM SCT045 BKN150=

USA.gov is the U.S. government's official web portal to all federal, state and local government web resources and services.